Time;durP1;ratioP1;P1;durP2;ratioP2;P2;SDS_P1;SDS_P2;PMS_P1;PMS_P2;Temp;Humidity;BMP_temperature;BMP_pressure;BME280_temperature;BME280_humidity;BME280_pressure;Samples;Min_cycle;Max_cycle;Signal;HPM_P1;HPM_P2
2024/04/05 00:00:07;;;;;;;;;;;;;;;20.65;41.00;95735.44;10447543;28;2783;-62
2024/04/05 00:05:09;;;;;;;;;;;;;;;20.63;41.21;95733.06;10472716;28;2729;-61
2024/04/05 00:10:10;;;;;;;;;;;;;;;20.62;40.95;95734.16;10473231;28;2731;-62
2024/04/05 00:15:11;;;;;;;;;;;;;;;20.62;41.10;95739.41;10454805;28;2530;-61
2024/04/05 00:20:11;;;;;;;;;;;;;;;20.62;41.97;95741.25;10476404;28;2794;-61
2024/04/05 00:25:11;;;;;;;;;;;;;;;20.62;40.98;95746.53;10472417;28;2782;-61
2024/04/05 00:30:11;;;;;;;;;;;;;;;20.60;41.34;95738.91;10463752;28;2839;-61
2024/04/05 00:35:12;;;;;;;;;;;;;;;20.60;41.19;95736.25;10457509;28;2797;-61
2024/04/05 00:40:12;;;;;;;;;;;;;;;20.58;41.75;95735.75;10455186;28;2871;-61
2024/04/05 00:45:13;;;;;;;;;;;;;;;20.58;41.26;95735.75;10449199;28;2779;-61
2024/04/05 00:50:13;;;;;;;;;;;;;;;20.57;41.22;95733.38;10454918;28;2446;-61
2024/04/05 00:55:13;;;;;;;;;;;;;;;20.56;41.19;95726.53;10458053;28;2644;-61
2024/04/05 01:00:14;;;;;;;;;;;;;;;20.55;41.35;95719.69;10474044;28;2730;-61
2024/04/05 01:05:14;;;;;;;;;;;;;;;20.55;41.45;95724.97;10452939;28;2890;-61
2024/04/05 01:10:15;;;;;;;;;;;;;;;20.54;41.53;95718.13;10452757;28;2876;-61
2024/04/05 01:15:17;;;;;;;;;;;;;;;20.53;41.74;95713.91;10475696;28;2555;-62
2024/04/05 01:20:18;;;;;;;;;;;;;;;20.52;41.38;95710.50;10451315;28;2795;-62
2024/04/05 01:25:21;;;;;;;;;;;;;;;20.51;41.03;95714.19;10453509;28;2798;-61
2024/04/05 01:30:22;;;;;;;;;;;;;;;20.49;41.12;95705.78;10468135;28;2781;-61
2024/04/05 01:35:22;;;;;;;;;;;;;;;20.50;41.66;95715.28;10472966;28;2594;-61
2024/04/05 01:40:23;;;;;;;;;;;;;;;20.50;41.40;95714.47;10453100;28;2542;-61
2024/04/05 01:45:23;;;;;;;;;;;;;;;20.49;41.17;95720.78;10455004;28;2749;-62
2024/04/05 01:50:24;;;;;;;;;;;;;;;20.48;41.33;95730.56;10462875;28;2365;-61
2024/04/05 01:55:26;;;;;;;;;;;;;;;20.47;41.40;95728.97;10447021;28;2706;-62
2024/04/05 02:00:26;;;;;;;;;;;;;;;20.46;41.49;95731.88;10484677;28;2849;-62
2024/04/05 02:05:27;;;;;;;;;;;;;;;20.45;41.22;95731.09;10474748;28;2932;-62
2024/04/05 02:10:29;;;;;;;;;;;;;;;20.43;41.34;95717.41;10457489;28;2674;-62
2024/04/05 02:15:31;;;;;;;;;;;;;;;20.45;41.56;95717.13;10489204;28;2902;-61
2024/04/05 02:20:31;;;;;;;;;;;;;;;20.43;41.36;95722.69;10458152;28;2882;-62
2024/04/05 02:25:31;;;;;;;;;;;;;;;20.42;41.41;95723.75;10458534;28;2713;-62
2024/04/05 02:30:31;;;;;;;;;;;;;;;20.41;41.49;95719.53;10469231;28;2773;-62
2024/04/05 02:35:32;;;;;;;;;;;;;;;20.41;41.51;95730.06;10458239;28;2844;-62
2024/04/05 02:40:32;;;;;;;;;;;;;;;20.40;41.69;95717.19;10425977;28;2644;-62
2024/04/05 02:45:32;;;;;;;;;;;;;;;20.40;41.54;95725.06;10460362;28;2864;-62
2024/04/05 02:50:33;;;;;;;;;;;;;;;20.39;41.60;95724.28;10437996;28;2694;-61
2024/04/05 02:55:33;;;;;;;;;;;;;;;20.39;41.82;95720.84;10472660;28;2789;-61
2024/04/05 03:00:35;;;;;;;;;;;;;;;20.37;41.80;95721.13;10458915;28;2778;-62
2024/04/05 03:05:35;;;;;;;;;;;;;;;20.37;41.61;95712.44;10455580;28;2809;-63
2024/04/05 03:10:35;;;;;;;;;;;;;;;20.36;41.55;95716.91;10456122;28;2711;-62
2024/04/05 03:15:36;;;;;;;;;;;;;;;20.35;41.55;95712.72;10445411;28;2978;-62
2024/04/05 03:20:36;;;;;;;;;;;;;;;20.34;41.62;95711.13;10456273;28;2888;-62
2024/04/05 03:25:39;;;;;;;;;;;;;;;20.34;41.67;95719.03;10441751;28;2611;-62
2024/04/05 03:30:40;;;;;;;;;;;;;;;20.34;41.78;95724.28;10470622;28;2813;-62
2024/04/05 03:35:40;;;;;;;;;;;;;;;20.33;41.78;95712.22;10452257;28;2711;-62
2024/04/05 03:40:40;;;;;;;;;;;;;;;20.32;41.63;95705.34;10473246;28;2877;-62
2024/04/05 03:45:41;;;;;;;;;;;;;;;20.33;41.72;95708.78;10457342;28;2884;-62
2024/04/05 03:50:42;;;;;;;;;;;;;;;20.33;41.93;95696.41;10456746;28;2802;-62
2024/04/05 03:55:42;;;;;;;;;;;;;;;20.31;42.02;95697.75;10455526;28;2716;-62
2024/04/05 04:00:48;;;;;;;;;;;;;;;20.30;41.63;95691.69;10472720;28;2780;-63
2024/04/05 04:05:49;;;;;;;;;;;;;;;20.31;42.03;95697.75;10463323;28;2790;-62
2024/04/05 04:10:49;;;;;;;;;;;;;;;20.33;41.97;95700.88;10470859;28;2780;-62
2024/04/05 04:15:50;;;;;;;;;;;;;;;20.37;42.05;95707.97;10460534;28;2534;-62
2024/04/05 04:20:50;;;;;;;;;;;;;;;20.45;41.71;95711.88;10476705;28;2777;-62
2024/04/05 04:25:51;;;;;;;;;;;;;;;20.49;41.54;95718.94;10451554;28;2778;-62
2024/04/05 04:30:52;;;;;;;;;;;;;;;20.54;41.99;95712.88;10458954;28;2733;-62
2024/04/05 04:35:52;;;;;;;;;;;;;;;20.61;42.06;95716.75;10453212;28;2794;-62
2024/04/05 04:40:53;;;;;;;;;;;;;;;20.66;42.16;95716.72;10436464;28;2755;-62
2024/04/05 04:45:53;;;;;;;;;;;;;;;20.72;41.53;95715.63;10452298;28;2853;-62
2024/04/05 04:50:54;;;;;;;;;;;;;;;20.76;41.54;95716.66;10472626;28;2828;-62
2024/04/05 04:55:54;;;;;;;;;;;;;;;20.82;41.81;95725.28;10454112;28;2385;-62
2024/04/05 05:00:55;;;;;;;;;;;;;;;20.86;41.35;95726.31;10478897;28;2707;-62
2024/04/05 05:05:56;;;;;;;;;;;;;;;20.88;41.96;95730.25;10465745;28;2608;-62
2024/04/05 05:10:56;;;;;;;;;;;;;;;20.93;40.91;95724.97;10466451;28;2766;-62
2024/04/05 05:15:56;;;;;;;;;;;;;;;20.94;41.27;95720.44;10459769;28;2866;-62
2024/04/05 05:20:57;;;;;;;;;;;;;;;20.99;40.81;95717.78;10467270;28;2775;-62
2024/04/05 05:25:57;;;;;;;;;;;;;;;20.98;41.89;95714.38;10461908;28;2884;-62
2024/04/05 05:30:58;;;;;;;;;;;;;;;21.00;40.97;95716.72;10457495;28;2737;-62
2024/04/05 05:35:58;;;;;;;;;;;;;;;21.03;41.58;95713.56;10471747;28;2798;-62
2024/04/05 05:40:59;;;;;;;;;;;;;;;21.04;41.64;95713.28;10483340;28;2477;-64
2024/04/05 05:46:01;;;;;;;;;;;;;;;21.03;41.63;95716.19;10452690;28;2556;-62
2024/04/05 05:51:02;;;;;;;;;;;;;;;21.06;41.58;95721.69;10455472;28;2768;-62
2024/04/05 05:56:02;;;;;;;;;;;;;;;21.07;41.17;95727.75;10446737;28;2834;-63
2024/04/05 06:01:06;;;;;;;;;;;;;;;21.07;41.64;95727.75;10448178;28;2734;-63
2024/04/05 06:06:07;;;;;;;;;;;;;;;21.12;41.59;95724.31;10446803;28;2844;-63
2024/04/05 06:11:08;;;;;;;;;;;;;;;21.15;41.78;95713.19;10458926;28;2883;-66
2024/04/05 06:16:08;;;;;;;;;;;;;;;21.17;41.09;95724.25;10424709;28;2824;-64
2024/04/05 06:21:08;;;;;;;;;;;;;;;21.16;41.94;95725.31;10446579;28;2783;-62
2024/04/05 06:26:09;;;;;;;;;;;;;;;21.18;41.69;95733.75;10443389;28;2642;-64
2024/04/05 06:31:10;;;;;;;;;;;;;;;21.20;41.87;95731.59;10442171;28;2851;-65
2024/04/05 06:36:10;;;;;;;;;;;;;;;21.20;41.86;95734.25;10443531;28;2739;-65
2024/04/05 06:41:11;;;;;;;;;;;;;;;21.23;40.87;95728.41;10453779;28;2864;-60
2024/04/05 06:46:11;;;;;;;;;;;;;;;21.25;41.54;95723.63;10439014;28;2844;-64
2024/04/05 06:51:11;;;;;;;;;;;;;;;21.23;41.56;95721.28;10459681;28;2519;-63
2024/04/05 06:56:11;;;;;;;;;;;;;;;21.24;42.67;95720.25;10455159;28;2794;-63
2024/04/05 07:01:12;;;;;;;;;;;;;;;21.25;42.61;95713.09;10466915;28;2775;-63
2024/04/05 07:06:12;;;;;;;;;;;;;;;21.29;41.78;95716.78;10451780;28;2743;-59
2024/04/05 07:11:13;;;;;;;;;;;;;;;21.33;41.20;95728.34;10452807;28;2866;-59
2024/04/05 07:16:15;;;;;;;;;;;;;;;21.35;42.76;95718.28;10450871;28;2705;-62
2024/04/05 07:21:16;;;;;;;;;;;;;;;21.36;42.43;95738.31;10468375;28;2614;-62
2024/04/05 07:26:16;;;;;;;;;;;;;;;21.42;43.16;95739.81;10452082;28;2825;-62
2024/04/05 07:31:16;;;;;;;;;;;;;;;21.43;43.03;95736.91;10442360;28;2721;-62
2024/04/05 07:36:19;;;;;;;;;;;;;;;21.47;43.17;95737.94;10466071;28;2944;-63
2024/04/05 07:41:19;;;;;;;;;;;;;;;21.46;43.36;95735.56;10446771;28;2812;-63
2024/04/05 07:46:20;;;;;;;;;;;;;;;21.48;44.33;95738.72;10446378;28;2894;-62
2024/04/05 07:51:20;;;;;;;;;;;;;;;21.48;44.41;95738.72;10448393;28;2797;-62
2024/04/05 07:56:22;;;;;;;;;;;;;;;21.50;44.19;95732.09;10449457;28;2602;-62
2024/04/05 08:01:23;;;;;;;;;;;;;;;21.50;44.94;95732.09;10450887;28;2713;-62
2024/04/05 08:06:23;;;;;;;;;;;;;;;21.50;44.79;95729.47;10467452;28;2777;-63
2024/04/05 08:11:24;;;;;;;;;;;;;;;21.51;44.88;95724.97;10452160;28;2784;-62
2024/04/05 08:16:24;;;;;;;;;;;;;;;21.54;44.20;95727.84;10468354;28;2845;-60
2024/04/05 08:21:24;;;;;;;;;;;;;;;21.55;44.01;95728.63;10440576;28;2893;-62
2024/04/05 08:26:24;;;;;;;;;;;;;;;21.54;44.33;95732.31;10472418;28;2850;-62
2024/04/05 08:31:25;;;;;;;;;;;;;;;21.55;44.99;95731.25;10439833;28;2586;-61
2024/04/05 08:36:25;;;;;;;;;;;;;;;21.59;44.97;95741.00;10456998;28;2769;-62
2024/04/05 08:41:27;;;;;;;;;;;;;;;21.60;45.50;95718.81;10465015;28;2802;-61
2024/04/05 08:46:27;;;;;;;;;;;;;;;21.63;45.94;95722.75;10455884;28;2657;-61
2024/04/05 08:51:27;;;;;;;;;;;;;;;21.62;45.60;95721.94;10446805;28;2896;-61
2024/04/05 08:56:28;;;;;;;;;;;;;;;21.65;45.94;95716.13;10433362;28;2804;-61
2024/04/05 09:01:29;;;;;;;;;;;;;;;21.64;45.45;95711.91;10454860;28;2777;-62
2024/04/05 09:06:29;;;;;;;;;;;;;;;21.64;44.83;95713.75;10451494;28;2793;-61
2024/04/05 09:11:29;;;;;;;;;;;;;;;21.67;44.25;95715.84;10449807;28;2573;-61
2024/04/05 09:16:31;;;;;;;;;;;;;;;21.62;44.90;95719.31;10467140;28;2636;-59
2024/04/05 09:21:31;;;;;;;;;;;;;;;21.61;44.77;95727.50;10446637;28;2826;-59
2024/04/05 09:26:32;;;;;;;;;;;;;;;21.60;45.10;95728.56;10466977;28;2829;-59
2024/04/05 09:31:33;;;;;;;;;;;;;;;21.61;44.84;95733.56;10465411;28;2556;-59
2024/04/05 09:36:34;;;;;;;;;;;;;;;21.61;45.08;95716.97;10470339;28;2635;-58
2024/04/05 09:41:34;;;;;;;;;;;;;;;21.62;45.85;95707.97;10467222;28;2765;-58
2024/04/05 09:46:37;;;;;;;;;;;;;;;21.65;46.79;95705.56;10447842;28;2774;-58
2024/04/05 09:51:44;;;;;;;;;;;;;;;21.68;47.96;95702.34;10451612;28;2816;-58
2024/04/05 09:56:45;;;;;;;;;;;;;;;21.69;48.56;95701.31;10443664;28;2508;-58
2024/04/05 10:01:46;;;;;;;;;;;;;;;21.69;49.06;95709.22;10459500;28;2592;-58
2024/04/05 10:06:46;;;;;;;;;;;;;;;21.71;49.60;95703.66;10457700;28;2731;-58
2024/04/05 10:11:47;;;;;;;;;;;;;;;21.73;49.83;95710.22;10459388;28;2840;-58
2024/04/05 10:16:47;;;;;;;;;;;;;;;21.75;50.37;95712.56;10466180;28;2753;-58
2024/04/05 10:21:48;;;;;;;;;;;;;;;21.74;50.79;95706.50;10463566;28;2770;-58
2024/04/05 10:26:52;;;;;;;;;;;;;;;21.79;49.91;95703.03;10467126;28;3017;-58
2024/04/05 10:32:02;;;;;;;;;;;;;;;21.79;50.96;95700.38;10451496;28;2821;-58
2024/04/05 10:37:06;;;;;;;;;;;;;;;21.78;50.90;95712.03;10465954;28;2810;-58
2024/04/05 10:42:06;;;;;;;;;;;;;;;21.79;50.69;95700.38;10466860;28;2791;-58
2024/04/05 10:47:07;;;;;;;;;;;;;;;21.78;49.87;95709.38;10468344;28;2734;-58
2024/04/05 10:52:07;;;;;;;;;;;;;;;21.78;49.36;95699.59;10470725;28;2718;-58
2024/04/05 10:57:07;;;;;;;;;;;;;;;21.74;49.88;95697.81;10467501;28;2570;-58
2024/04/05 11:02:08;;;;;;;;;;;;;;;21.74;50.13;95695.94;10465176;28;2552;-58
2024/04/05 11:07:08;;;;;;;;;;;;;;;21.78;47.66;95683.00;10469634;28;2763;-59
2024/04/05 11:12:10;;;;;;;;;;;;;;;21.70;46.06;95678.34;10450765;28;2845;-59
2024/04/05 11:17:11;;;;;;;;;;;;;;;21.57;42.94;95673.75;10468635;28;2726;-59
2024/04/05 11:22:12;;;;;;;;;;;;;;;21.47;39.53;95674.66;10466414;28;2794;-59
2024/04/05 11:27:18;;;;;;;;;;;;;;;21.39;39.37;95667.34;10453472;28;2718;-59
2024/04/05 11:32:28;;;;;;;;;;;;;;;21.32;38.58;95660.84;10451169;28;2825;-59
2024/04/05 11:37:29;;;;;;;;;;;;;;;21.24;34.78;95653.53;10451351;28;2758;-57
2024/04/05 11:42:29;;;;;;;;;;;;;;;21.23;36.33;95644.03;10447306;28;2878;-60
2024/04/05 11:47:29;;;;;;;;;;;;;;;21.17;33.82;95647.78;10448617;28;2579;-59
2024/04/05 11:52:31;;;;;;;;;;;;;;;21.18;32.82;95644.13;10444365;28;2728;-59
2024/04/05 11:57:31;;;;;;;;;;;;;;;21.17;32.32;95629.34;10464199;28;2757;-60
2024/04/05 12:02:32;;;;;;;;;;;;;;;21.17;31.99;95622.22;10428058;28;2768;-60
2024/04/05 12:07:33;;;;;;;;;;;;;;;21.16;32.26;95607.50;10450811;28;2658;-60
2024/04/05 12:12:33;;;;;;;;;;;;;;;21.19;32.18;95592.94;10459975;28;2833;-59
2024/04/05 12:17:35;;;;;;;;;;;;;;;21.23;32.56;95593.97;10445988;28;2872;-59
2024/04/05 12:22:37;;;;;;;;;;;;;;;21.27;32.15;95581.81;10450634;28;2739;-61
2024/04/05 12:27:37;;;;;;;;;;;;;;;21.26;31.95;95567.03;10465677;28;2529;-58
2024/04/05 12:32:38;;;;;;;;;;;;;;;21.29;32.19;95571.78;10465477;28;2746;-59
2024/04/05 12:37:38;;;;;;;;;;;;;;;21.32;31.35;95574.63;10448026;28;2943;-60
2024/04/05 12:42:38;;;;;;;;;;;;;;;21.33;31.19;95563.00;10457259;28;2810;-60
2024/04/05 12:47:38;;;;;;;;;;;;;;;21.29;31.14;95553.31;10463849;28;2848;-59
2024/04/05 12:52:39;;;;;;;;;;;;;;;21.31;30.96;95554.56;10447218;28;2866;-59
2024/04/05 12:57:39;;;;;;;;;;;;;;;21.31;31.28;95549.31;10467698;28;2579;-59
2024/04/05 13:02:39;;;;;;;;;;;;;;;21.37;30.50;95542.13;10460020;28;2731;-59
2024/04/05 13:07:40;;;;;;;;;;;;;;;21.38;30.57;95533.94;10461143;28;2806;-59
2024/04/05 13:12:40;;;;;;;;;;;;;;;21.41;30.53;95537.88;10457924;28;2836;-59
2024/04/05 13:17:40;;;;;;;;;;;;;;;21.41;30.28;95532.59;10463709;28;2343;-60
2024/04/05 13:22:41;;;;;;;;;;;;;;;21.41;30.39;95530.72;10446632;28;2761;-58
2024/04/05 13:27:41;;;;;;;;;;;;;;;21.38;31.23;95522.59;10462275;28;2734;-59
2024/04/05 13:32:41;;;;;;;;;;;;;;;21.41;31.70;95524.69;10459092;28;2591;-59
2024/04/05 13:37:42;;;;;;;;;;;;;;;21.42;31.66;95513.06;10457537;28;2793;-59
2024/04/05 13:42:46;;;;;;;;;;;;;;;21.42;32.02;95513.84;10464892;28;2714;-59
2024/04/05 13:47:46;;;;;;;;;;;;;;;21.47;31.42;95505.88;10469332;28;2937;-59
2024/04/05 13:52:47;;;;;;;;;;;;;;;21.47;31.41;95502.44;10470110;28;2817;-59
2024/04/05 13:57:48;;;;;;;;;;;;;;;21.46;31.44;95493.75;10448784;28;6659;-60
2024/04/05 14:02:49;;;;;;;;;;;;;;;21.47;31.44;95491.91;10457987;28;5057;-61
2024/04/05 14:07:49;;;;;;;;;;;;;;;21.42;32.08;95495.38;10465092;28;2873;-60
2024/04/05 14:12:50;;;;;;;;;;;;;;;21.40;33.15;95486.19;10451988;28;2761;-60
2024/04/05 14:17:50;;;;;;;;;;;;;;;21.41;33.59;95479.84;10466857;28;2711;-60
2024/04/05 14:22:50;;;;;;;;;;;;;;;21.41;33.88;95485.13;10470907;28;2914;-61
2024/04/05 14:27:50;;;;;;;;;;;;;;;21.41;34.54;95493.81;10453961;28;2781;-60
2024/04/05 14:32:51;;;;;;;;;;;;;;;21.41;34.69;95507.00;10467356;28;2797;-60
2024/04/05 14:37:52;;;;;;;;;;;;;;;21.40;35.12;95504.63;10468652;28;2832;-60
2024/04/05 14:42:52;;;;;;;;;;;;;;;21.40;35.32;95499.38;10449166;28;2796;-61
2024/04/05 14:47:52;;;;;;;;;;;;;;;21.39;35.78;95497.81;10466318;28;2711;-60
2024/04/05 14:52:52;;;;;;;;;;;;;;;21.37;35.95;95486.78;10473033;28;2917;-60
2024/04/05 14:57:53;;;;;;;;;;;;;;;21.39;36.17;95498.56;10450175;28;2571;-60
2024/04/05 15:02:53;;;;;;;;;;;;;;;21.39;36.42;95509.13;10447740;28;2909;-60
2024/04/05 15:07:53;;;;;;;;;;;;;;;21.39;36.71;95506.50;10478930;28;2864;-60
2024/04/05 15:12:53;;;;;;;;;;;;;;;21.39;37.02;95495.19;10465038;28;2828;-60
2024/04/05 15:17:54;;;;;;;;;;;;;;;21.38;37.17;95507.56;10432493;28;2857;-60
2024/04/05 15:22:54;;;;;;;;;;;;;;;21.37;37.34;95506.00;10469061;28;2802;-60
2024/04/05 15:27:54;;;;;;;;;;;;;;;21.38;37.73;95504.94;10467132;28;2829;-61
2024/04/05 15:32:54;;;;;;;;;;;;;;;21.35;37.76;95505.50;10442896;28;2958;-60
2024/04/05 15:37:55;;;;;;;;;;;;;;;21.38;38.15;95523.38;10472390;28;2535;-60
2024/04/05 15:42:55;;;;;;;;;;;;;;;21.41;39.61;95535.22;10449593;28;2608;-60
2024/04/05 15:47:55;;;;;;;;;;;;;;;21.44;40.00;95539.91;10464275;28;2801;-58
2024/04/05 15:52:56;;;;;;;;;;;;;;;21.45;40.20;95544.91;10466783;28;2874;-59
2024/04/05 15:57:56;;;;;;;;;;;;;;;21.47;40.27;95547.28;10450537;28;2872;-59
2024/04/05 16:02:56;;;;;;;;;;;;;;;21.47;40.64;95557.81;10462268;28;2793;-59
2024/04/05 16:07:56;;;;;;;;;;;;;;;21.44;40.47;95553.91;10462552;28;2836;-59
2024/04/05 16:12:57;;;;;;;;;;;;;;;21.43;40.45;95565.50;10462514;28;2829;-58
2024/04/05 16:17:57;;;;;;;;;;;;;;;21.42;40.64;95571.06;10462253;28;2707;-58
2024/04/05 16:22:57;;;;;;;;;;;;;;;21.46;42.34;95572.06;10465255;28;2783;-58
2024/04/05 16:27:58;;;;;;;;;;;;;;;21.48;42.69;95559.38;10466601;28;2801;-58
2024/04/05 16:32:58;;;;;;;;;;;;;;;21.47;42.95;95566.53;10431550;28;2770;-58
2024/04/05 16:37:58;;;;;;;;;;;;;;;21.49;43.18;95566.25;10466330;28;2821;-59
2024/04/05 16:42:58;;;;;;;;;;;;;;;21.48;43.38;95562.03;10462853;28;2809;-59
2024/04/05 16:47:59;;;;;;;;;;;;;;;21.48;43.34;95575.19;10463984;28;2995;-59
2024/04/05 16:53:01;;;;;;;;;;;;;;;21.48;43.37;95575.19;10464048;28;2806;-59
2024/04/05 16:58:02;;;;;;;;;;;;;;;21.46;43.80;95561.50;10434428;28;2735;-59
2024/04/05 17:03:02;;;;;;;;;;;;;;;21.47;43.61;95563.09;10436457;28;2743;-59
2024/04/05 17:08:07;;;;;;;;;;;;;;;21.47;43.98;95576.28;10469515;28;2777;-59
2024/04/05 17:13:08;;;;;;;;;;;;;;;21.46;44.13;95572.84;10451571;28;2568;-59
2024/04/05 17:18:08;;;;;;;;;;;;;;;21.46;44.57;95578.13;10461390;28;2847;-59
2024/04/05 17:23:08;;;;;;;;;;;;;;;21.45;44.69;95570.50;10466861;28;2804;-59
2024/04/05 17:28:08;;;;;;;;;;;;;;;21.45;44.79;95583.69;10449032;28;2925;-57
2024/04/05 17:33:09;;;;;;;;;;;;;;;21.46;44.84;95603.72;10466086;28;2856;-60
2024/04/05 17:38:09;;;;;;;;;;;;;;;21.46;44.90;95608.97;10445693;28;2790;-60
2024/04/05 17:43:09;;;;;;;;;;;;;;;21.45;45.29;95610.06;10444541;28;2526;-58
2024/04/05 17:48:10;;;;;;;;;;;;;;;21.47;45.42;95611.38;10472442;28;2685;-58
2024/04/05 17:53:10;;;;;;;;;;;;;;;21.50;44.89;95605.50;10445805;28;2865;-58
2024/04/05 17:58:11;;;;;;;;;;;;;;;21.53;44.88;95610.22;10471690;28;2877;-58
2024/04/05 18:03:11;;;;;;;;;;;;;;;21.57;44.79;95628.91;10460067;28;2928;-58
2024/04/05 18:08:11;;;;;;;;;;;;;;;21.59;44.98;95638.13;10435234;28;2717;-58
2024/04/05 18:13:11;;;;;;;;;;;;;;;21.63;44.75;95640.97;10451559;28;2721;-58
2024/04/05 18:18:12;;;;;;;;;;;;;;;21.65;44.95;95650.16;10465084;28;2824;-58
2024/04/05 18:23:12;;;;;;;;;;;;;;;21.68;45.04;95659.34;10460652;28;2856;-59
2024/04/05 18:28:16;;;;;;;;;;;;;;;21.70;45.46;95665.16;10464563;28;2633;-58
2024/04/05 18:33:16;;;;;;;;;;;;;;;21.71;45.53;95678.06;10475349;28;2764;-59
2024/04/05 18:38:16;;;;;;;;;;;;;;;21.75;45.41;95675.63;10472677;28;2510;-58
2024/04/05 18:43:16;;;;;;;;;;;;;;;21.78;45.49;95669.81;10493347;28;1562;-59
2024/04/05 18:48:17;;;;;;;;;;;;;;;21.78;45.86;95659.25;10469421;28;1762;-59
2024/04/05 18:53:18;;;;;;;;;;;;;;;21.81;45.56;95669.22;10472062;28;1906;-60
2024/04/05 18:58:21;;;;;;;;;;;;;;;21.79;45.38;95677.44;10491300;28;1392;-60
2024/04/05 19:03:25;;;;;;;;;;;;;;;21.77;45.31;95689.34;10472099;28;1412;-60
2024/04/05 19:08:28;;;;;;;;;;;;;;;21.76;45.21;95683.25;10490202;28;1365;-59
2024/04/05 19:13:28;;;;;;;;;;;;;;;21.76;45.40;95677.97;10468601;28;1910;-60
2024/04/05 19:18:29;;;;;;;;;;;;;;;21.77;45.28;95684.06;10452047;28;1518;-60
2024/04/05 19:23:29;;;;;;;;;;;;;;;21.75;45.50;95688.81;10484155;28;1662;-60
2024/04/05 19:28:29;;;;;;;;;;;;;;;21.74;45.36;95695.19;10471293;28;1475;-60
2024/04/05 19:33:29;;;;;;;;;;;;;;;21.72;45.62;95697.31;10493382;28;2527;-59
2024/04/05 19:38:31;;;;;;;;;;;;;;;21.74;45.73;95684.63;10494009;28;1848;-60
2024/04/05 19:43:31;;;;;;;;;;;;;;;21.74;45.48;95687.28;10485389;28;1775;-59
2024/04/05 19:48:31;;;;;;;;;;;;;;;21.74;45.79;95693.31;10490158;28;1491;-59
2024/04/05 19:53:31;;;;;;;;;;;;;;;21.74;45.61;95689.91;10442890;28;2982;-59
2024/04/05 19:58:32;;;;;;;;;;;;;;;21.74;45.31;95695.19;10470930;28;2715;-58
2024/04/05 20:03:32;;;;;;;;;;;;;;;21.72;45.74;95676.22;10470168;28;2836;-59
2024/04/05 20:08:32;;;;;;;;;;;;;;;21.73;46.02;95680.41;10468961;28;2905;-59
2024/04/05 20:13:33;;;;;;;;;;;;;;;21.72;46.08;95681.50;10466751;28;2963;-59
2024/04/05 20:18:33;;;;;;;;;;;;;;;21.72;46.12;95689.41;10470886;28;2796;-59
2024/04/05 20:23:33;;;;;;;;;;;;;;;21.73;46.78;95696.25;10480202;28;2579;-59
2024/04/05 20:33:54;;;;;;;;;;;;;;;21.68;46.08;95704.19;10456968;28;2639;-58
2024/04/05 20:38:54;;;;;;;;;;;;;;;21.63;46.02;95714.81;10452462;28;2916;-58
2024/04/05 20:43:55;;;;;;;;;;;;;;;21.58;46.49;95722.78;10472733;28;2859;-58
2024/04/05 20:48:55;;;;;;;;;;;;;;;21.53;46.24;95721.00;10477177;28;2793;-59
2024/04/05 20:53:56;;;;;;;;;;;;;;;21.49;46.94;95735.03;10454896;28;2799;-58
2024/04/05 20:58:56;;;;;;;;;;;;;;;21.47;46.64;95732.66;10479415;28;2573;-59
2024/04/05 21:03:57;;;;;;;;;;;;;;;21.45;46.88;95726.09;10442514;28;2801;-58
2024/04/05 21:08:57;;;;;;;;;;;;;;;21.42;46.90;95726.66;10460598;28;2782;-59
2024/04/05 21:13:57;;;;;;;;;;;;;;;21.41;46.74;95733.00;10475673;28;2826;-59
2024/04/05 21:18:57;;;;;;;;;;;;;;;21.39;47.15;95721.94;10459779;28;2742;-58
2024/04/05 21:24:00;;;;;;;;;;;;;;;21.36;47.16;95725.91;10452548;28;2840;-59
2024/04/05 21:29:00;;;;;;;;;;;;;;;21.35;47.20;95734.88;10479396;28;2705;-59
2024/04/05 21:34:01;;;;;;;;;;;;;;;21.35;47.16;95744.66;10475061;28;2334;-59
2024/04/05 21:39:01;;;;;;;;;;;;;;;21.33;47.01;95749.44;10447724;28;2770;-59
2024/04/05 21:44:01;;;;;;;;;;;;;;;21.31;47.29;95748.91;10478084;28;2832;-58
2024/04/05 21:49:02;;;;;;;;;;;;;;;21.30;47.35;95752.59;10458924;28;2850;-59
2024/04/05 21:54:02;;;;;;;;;;;;;;;21.29;47.20;95751.81;10471332;28;2791;-58
2024/04/05 21:59:03;;;;;;;;;;;;;;;21.28;47.18;95749.47;10470347;28;2808;-58
2024/04/05 22:04:04;;;;;;;;;;;;;;;21.26;47.22;95755.00;10491340;28;2731;-58
2024/04/05 22:09:06;;;;;;;;;;;;;;;21.25;47.32;95771.09;10483489;28;2807;-59
2024/04/05 22:14:06;;;;;;;;;;;;;;;21.24;47.43;95780.88;10462670;28;2806;-59
2024/04/05 22:19:08;;;;;;;;;;;;;;;21.23;47.12;95746.84;10465438;28;2488;-58
2024/04/05 22:24:08;;;;;;;;;;;;;;;21.22;47.04;95750.56;10485951;28;2826;-58
2024/04/05 22:29:08;;;;;;;;;;;;;;;21.21;47.16;95754.25;10483679;28;2819;-59
2024/04/05 22:34:08;;;;;;;;;;;;;;;21.20;47.09;95765.88;10475910;28;2862;-59
2024/04/05 22:39:08;;;;;;;;;;;;;;;21.19;47.13;95756.38;10442463;28;2772;-59
2024/04/05 22:44:09;;;;;;;;;;;;;;;21.19;47.28;95761.66;10478830;28;2806;-59
2024/04/05 22:49:09;;;;;;;;;;;;;;;21.18;47.13;95775.91;10457316;28;2819;-59
2024/04/05 22:54:09;;;;;;;;;;;;;;;21.18;47.10;95762.72;10476570;28;2869;-59
2024/04/05 22:59:10;;;;;;;;;;;;;;;21.17;47.12;95755.88;10463160;28;2804;-58
2024/04/05 23:04:10;;;;;;;;;;;;;;;21.15;46.94;95758.00;10467724;28;2760;-59
2024/04/05 23:09:12;;;;;;;;;;;;;;;21.14;46.98;95751.97;10482687;28;2548;-59
2024/04/05 23:14:12;;;;;;;;;;;;;;;21.14;46.88;95749.31;10476513;28;2694;-60
2024/04/05 23:19:12;;;;;;;;;;;;;;;21.12;46.80;95754.09;10494334;28;2730;-60
2024/04/05 23:24:15;;;;;;;;;;;;;;;21.11;46.78;95767.53;10472421;28;2367;-59
2024/04/05 23:29:16;;;;;;;;;;;;;;;21.12;46.74;95763.84;10493249;28;2719;-59
2024/04/05 23:34:16;;;;;;;;;;;;;;;21.11;46.73;95764.88;10469971;28;2783;-59
2024/04/05 23:39:16;;;;;;;;;;;;;;;21.10;46.64;95769.41;10478913;28;2734;-60
2024/04/05 23:44:17;;;;;;;;;;;;;;;21.09;46.89;95757.25;10476124;28;2741;-60
2024/04/05 23:49:17;;;;;;;;;;;;;;;21.09;46.82;95757.25;10479992;28;2842;-59
2024/04/05 23:54:17;;;;;;;;;;;;;;;21.08;46.87;95758.34;10477577;28;2636;-59
2024/04/05 23:59:17;;;;;;;;;;;;;;;21.06;46.61;95752.56;10475722;28;2708;-59
